LQTZ/TZL METAR and TAF weather

Enter ICAO airport designator
Station Type Date Time Source
LQTZ METAR 2021/03/03 20:30 UTC NOAA

LQTZ 032030Z VRB02KT CAVOK 03/M01 Q1026


Station Type Date Time Source
LQTZ Decoded METAR 2021/03/03 20:30 UTC NOAA

Tuzla, Bosnia and Herzegovina (LQTZ) 44-33N 018-42E
Mar 03, 2021 - 03:30 PM EST / 2021.03.03 2030 UTC
Wind: Variable at 2 MPH (2 KT):0
Visibility: greater than 7 mile(s):0
Temperature: 37 F (3 C)
Dew Point: 30 F (-1 C)
Relative Humidity: 74%
Pressure (altimeter): 30.30 in. Hg (1026 hPa)
ob: LQTZ 032030Z VRB02KT CAVOK 03/M01 Q1026
cycle: 20

Station Type Date Time Source
LQTZ TAF 2021/03/03 18:08 UTC NOAA

TAF LQTZ 031700Z 0318/0418 VRB02KT CAVOK TX18/0414Z TNM02/0406Z

Example: see airport list